Arriba, Colorado
Current Conditions -  °F | °C
As of 11:28 PM on Sunday 21 Dec 2014 (Local Time) from KLIC Reporting Station
Light Snow Light Snow  
Wind Chill: 19°   Ceiling: 1600
Heat Index: 32°   Visibility: 7mi
Dew Point: 30°   Wind: 25mph
Humidity: 92%   Direction: 340°NNW
Pressure: 29.68"   Gusts: 36mph
Location:  39.29°N, 103.28°W
Report Text: KLIC 220628Z AUTO 34022G31KT 7SM -SN FEW012 BKN016 OVC080 00/M01 A2968 RMK AO2 PK WND 35035/0609 P0002 T00001011
Loading
Personal Weather Stations






























Interactive Weather Map New forecast layout! Learn more

10-Day Weather Forecast

Advertisements
Track Severe Weather on mobile